Time;durP1;ratioP1;P1;durP2;ratioP2;P2;SDS_P1;SDS_P2;PMS_P1;PMS_P2;Temp;Humidity;BMP_temperature;BMP_pressure;BME280_temperature;BME280_humidity;BME280_pressure;Samples;Min_cycle;Max_cycle;Signal;HPM_P1;HPM_P2
2022/11/30 00:00:27;;;;;;;26.73;16.63;;;8.30;99.90;;;;;;5016782;28;20809;-75
2022/11/30 00:03:13;;;;;;;26.20;17.07;;;8.30;99.90;;;;;;5012990;28;20966;-75
2022/11/30 00:06:04;;;;;;;25.17;15.97;;;8.30;99.90;;;;;;5022575;28;20488;-75
2022/11/30 00:08:53;;;;;;;24.17;16.50;;;8.30;99.90;;;;;;5027543;28;21016;-74
2022/11/30 00:11:38;;;;;;;21.53;15.43;;;8.30;99.90;;;;;;5023487;28;20445;-75
2022/11/30 00:14:24;;;;;;;21.90;14.80;;;8.40;99.90;;;;;;5019836;28;20452;-74
2022/11/30 00:17:09;;;;;;;31.25;15.63;;;8.30;99.90;;;;;;5025786;28;20557;-75
2022/11/30 00:19:55;;;;;;;25.57;18.20;;;8.30;99.90;;;;;;5027079;28;20307;-74
2022/11/30 00:22:41;;;;;;;32.60;17.50;;;8.10;99.90;;;;;;5029806;28;20473;-76
2022/11/30 00:25:28;;;;;;;25.07;15.80;;;8.10;99.90;;;;;;5027095;28;21128;-74
2022/11/30 00:28:13;;;;;;;27.30;18.57;;;8.10;99.90;;;;;;5022137;28;20892;-75
2022/11/30 00:30:59;;;;;;;28.63;17.07;;;8.20;99.90;;;;;;5028028;28;20783;-74
2022/11/30 00:33:45;;;;;;;24.67;15.47;;;8.20;99.90;;;;;;5024811;28;20452;-75
2022/11/30 00:36:30;;;;;;;28.20;16.48;;;8.20;99.90;;;;;;5018749;28;20468;-75
2022/11/30 00:39:16;;;;;;;25.80;15.33;;;8.20;99.90;;;;;;5023080;28;20225;-75
2022/11/30 00:42:03;;;;;;;26.30;16.90;;;8.20;99.90;;;;;;5029691;28;20959;-75
2022/11/30 00:44:48;;;;;;;27.80;16.83;;;8.20;99.90;;;;;;5026443;28;20451;-75
2022/11/30 00:47:34;;;;;;;25.20;16.47;;;8.20;99.90;;;;;;5028930;28;20456;-75
2022/11/30 00:50:19;;;;;;;27.17;15.67;;;8.20;99.90;;;;;;5025187;28;20472;-75
2022/11/30 00:53:04;;;;;;;29.77;15.87;;;8.30;99.90;;;;;;5023755;28;20448;-75
2022/11/30 00:55:50;;;;;;;28.53;16.60;;;8.10;99.90;;;;;;5021909;28;20839;-74
2022/11/30 00:58:37;;;;;;;22.73;15.20;;;8.10;99.90;;;;;;5035195;28;22236;-76
2022/11/30 01:01:23;;;;;;;21.87;15.33;;;8.20;99.90;;;;;;5030119;28;21319;-74
2022/11/30 01:04:09;;;;;;;33.17;17.43;;;8.10;99.90;;;;;;5025211;28;20472;-74
2022/11/30 01:06:54;;;;;;;35.60;16.98;;;8.00;99.90;;;;;;5027364;28;20449;-76
2022/11/30 01:09:40;;;;;;;25.77;17.20;;;8.10;99.90;;;;;;5033289;28;20221;-75
2022/11/30 01:12:25;;;;;;;23.33;16.70;;;8.10;99.90;;;;;;5026207;28;20482;-75
2022/11/30 01:15:13;;;;;;;27.50;17.17;;;8.10;99.90;;;;;;5027353;28;20514;-75
2022/11/30 01:17:59;;;;;;;25.43;16.23;;;8.00;99.90;;;;;;5024391;28;20678;-74
2022/11/30 01:20:45;;;;;;;29.60;16.77;;;8.00;99.90;;;;;;5024665;28;20845;-75
2022/11/30 01:23:31;;;;;;;27.70;16.07;;;8.10;99.90;;;;;;5023442;28;20494;-76
2022/11/30 01:26:16;;;;;;;24.50;16.00;;;8.20;99.90;;;;;;5020156;28;20418;-75
2022/11/30 01:29:02;;;;;;;31.60;17.20;;;8.30;99.90;;;;;;5024540;28;20579;-75
2022/11/30 01:31:49;;;;;;;21.90;14.40;;;8.30;99.90;;;;;;5020762;28;20524;-76
2022/11/30 01:34:35;;;;;;;25.93;17.07;;;8.30;99.90;;;;;;5018752;28;20459;-75
2022/11/30 01:37:20;;;;;;;41.63;18.53;;;8.20;99.90;;;;;;5024501;28;20468;-74
2022/11/30 01:40:07;;;;;;;33.85;17.48;;;8.30;99.90;;;;;;5022275;28;20992;-74
2022/11/30 01:42:54;;;;;;;31.13;16.38;;;8.40;99.90;;;;;;5019354;28;20297;-74
2022/11/30 01:45:39;;;;;;;29.53;17.57;;;8.40;99.90;;;;;;5029166;28;20225;-74
2022/11/30 01:48:26;;;;;;;27.67;17.47;;;8.30;99.90;;;;;;5027338;28;20915;-74
2022/11/30 01:51:12;;;;;;;25.80;17.55;;;8.30;99.90;;;;;;5025140;28;21009;-74
2022/11/30 01:53:58;;;;;;;25.27;17.40;;;8.40;99.90;;;;;;5021424;28;20210;-75
2022/11/30 01:56:47;;;;;;;29.63;21.00;;;8.40;99.90;;;;;;5022687;28;20448;-75
2022/11/30 01:59:34;;;;;;;27.10;18.93;;;8.40;99.90;;;;;;5025218;28;20476;-74
2022/11/30 02:02:24;;;;;;;36.90;20.10;;;8.40;99.90;;;;;;5023910;28;20456;-75
2022/11/30 02:05:12;;;;;;;33.23;24.23;;;8.50;99.90;;;;;;5023687;28;20538;-74
2022/11/30 02:07:58;;;;;;;28.67;23.30;;;8.50;99.90;;;;;;5022844;28;20819;-74
2022/11/30 02:10:47;;;;;;;34.35;25.88;;;8.50;99.90;;;;;;5030048;28;20202;-73
2022/11/30 02:13:49;;;;;;;32.40;23.00;;;8.50;99.90;;;;;;5025375;28;20221;-75
2022/11/30 02:16:44;;;;;;;35.77;23.70;;;8.50;99.90;;;;;;5025051;28;20456;-74
2022/11/30 02:20:22;;;;;;;36.58;26.40;;;8.50;99.90;;;;;;5024638;28;20496;-74
2022/11/30 02:23:35;;;;;;;38.40;26.13;;;8.50;99.90;;;;;;5024144;28;20221;-74
2022/11/30 02:26:38;;;;;;;39.42;26.20;;;8.60;99.90;;;;;;5025588;28;20522;-74
2022/11/30 02:29:28;;;;;;;36.13;25.10;;;8.60;99.90;;;;;;5026264;28;20221;-74
2022/11/30 02:32:19;;;;;;;38.43;23.70;;;8.50;99.90;;;;;;5027539;28;20210;-75
2022/11/30 02:35:07;;;;;;;39.90;26.13;;;8.50;99.90;;;;;;5025611;28;20483;-74
2022/11/30 02:37:55;;;;;;;33.33;24.37;;;8.50;99.90;;;;;;5023739;28;20455;-74
2022/11/30 02:40:40;;;;;;;40.42;26.10;;;8.40;99.90;;;;;;5027862;28;20476;-74
2022/11/30 02:43:28;;;;;;;33.83;26.17;;;8.40;99.90;;;;;;5020156;28;20217;-74
2022/11/30 02:46:21;;;;;;;36.70;25.40;;;8.40;99.90;;;;;;5026800;28;20460;-75
2022/11/30 02:49:11;;;;;;;34.60;22.70;;;8.30;99.90;;;;;;5023124;28;20961;-76
2022/11/30 02:51:59;;;;;;;39.40;24.37;;;8.30;99.90;;;;;;5022651;28;20444;-74
2022/11/30 02:54:44;;;;;;;39.33;23.20;;;8.40;99.90;;;;;;5027096;28;20464;-75
2022/11/30 02:57:30;;;;;;;33.53;24.10;;;8.40;99.90;;;;;;5031596;28;21212;-74
2022/11/30 03:00:17;;;;;;;40.65;23.55;;;8.40;99.90;;;;;;5027563;28;20460;-76
2022/11/30 03:03:04;;;;;;;41.17;25.87;;;8.40;99.90;;;;;;5026104;28;20312;-75
2022/11/30 03:05:49;;;;;;;33.20;21.63;;;8.40;99.90;;;;;;5027668;28;20444;-74
2022/11/30 03:08:35;;;;;;;37.83;24.33;;;8.50;99.90;;;;;;5021974;28;20460;-74
2022/11/30 03:11:20;;;;;;;31.90;22.73;;;8.50;99.90;;;;;;5027293;28;20259;-74
2022/11/30 03:14:06;;;;;;;32.28;21.63;;;8.50;99.90;;;;;;5031215;28;20855;-75
2022/11/30 03:16:52;;;;;;;27.23;20.60;;;8.60;99.90;;;;;;5023058;28;20201;-74
2022/11/30 03:19:39;;;;;;;30.17;19.67;;;8.60;99.90;;;;;;5025062;28;20849;-74
2022/11/30 03:22:24;;;;;;;31.50;20.77;;;8.60;99.90;;;;;;5020176;28;21099;-74
2022/11/30 03:25:10;;;;;;;31.90;20.47;;;8.60;99.90;;;;;;5028174;28;20494;-75
2022/11/30 03:27:56;;;;;;;26.73;19.30;;;8.70;99.90;;;;;;5028268;28;20491;-75
2022/11/30 03:30:41;;;;;;;28.42;19.45;;;8.70;99.90;;;;;;5023414;28;20913;-74
2022/11/30 03:33:27;;;;;;;29.43;18.63;;;8.80;99.90;;;;;;5025116;28;20249;-75
2022/11/30 03:36:14;;;;;;;28.27;19.67;;;8.70;99.90;;;;;;5028372;28;20464;-74
2022/11/30 03:39:00;;;;;;;24.30;17.13;;;8.70;99.90;;;;;;5028527;28;20325;-74
2022/11/30 03:41:45;;;;;;;26.98;19.35;;;8.70;99.90;;;;;;5020914;28;20494;-75
2022/11/30 03:44:31;;;;;;;25.50;17.23;;;8.70;99.90;;;;;;5025553;28;20221;-74
2022/11/30 03:47:16;;;;;;;27.53;18.20;;;8.80;99.90;;;;;;5023811;28;20451;-75
2022/11/30 03:50:02;;;;;;;29.80;18.20;;;8.80;99.90;;;;;;5022406;28;20973;-74
2022/11/30 03:52:49;;;;;;;22.80;15.30;;;8.80;99.90;;;;;;5024462;28;21326;-75
2022/11/30 03:55:35;;;;;;;29.93;19.00;;;8.80;99.90;;;;;;5026771;28;20451;-74
2022/11/30 03:58:20;;;;;;;25.63;17.50;;;8.70;99.90;;;;;;5030380;28;20647;-75
2022/11/30 04:01:08;;;;;;;25.57;17.80;;;8.70;99.90;;;;;;5027118;28;20965;-74
2022/11/30 04:03:54;;;;;;;28.57;18.30;;;8.70;99.90;;;;;;5029616;28;20480;-74
2022/11/30 04:06:40;;;;;;;25.07;16.73;;;8.70;99.90;;;;;;5025502;28;20456;-74
2022/11/30 04:09:27;;;;;;;27.07;16.20;;;8.80;99.90;;;;;;5026840;28;20484;-75
2022/11/30 04:12:13;;;;;;;28.50;17.03;;;8.70;99.90;;;;;;5022202;28;20580;-74
2022/11/30 04:14:58;;;;;;;25.67;17.70;;;8.80;99.90;;;;;;5025159;28;20444;-74
2022/11/30 04:17:44;;;;;;;29.17;22.23;;;8.80;99.90;;;;;;5025124;28;20448;-75
2022/11/30 04:20:30;;;;;;;34.22;22.92;;;8.80;99.90;;;;;;5027423;28;20833;-74
2022/11/30 04:23:15;;;;;;;32.97;21.50;;;8.70;99.90;;;;;;5027490;28;20280;-75
2022/11/30 04:26:03;;;;;;;26.97;19.43;;;8.80;99.90;;;;;;5026851;28;21103;-74
2022/11/30 04:28:48;;;;;;;28.97;17.10;;;8.80;99.90;;;;;;5033339;28;20611;-74
2022/11/30 04:31:34;;;;;;;33.07;17.43;;;8.80;99.90;;;;;;5025727;28;20436;-74
2022/11/30 04:34:19;;;;;;;27.00;16.97;;;8.80;99.90;;;;;;5025556;28;20444;-74
2022/11/30 04:37:05;;;;;;;28.27;15.77;;;8.80;99.90;;;;;;5024774;28;20445;-74
2022/11/30 04:39:50;;;;;;;31.43;18.40;;;8.80;99.90;;;;;;5027416;28;20579;-74
2022/11/30 04:42:38;;;;;;;31.67;17.47;;;8.90;99.90;;;;;;5026492;28;20456;-74
2022/11/30 04:45:24;;;;;;;30.23;16.47;;;8.80;99.90;;;;;;5025838;28;20956;-75
2022/11/30 04:48:09;;;;;;;24.17;15.10;;;8.80;99.90;;;;;;5025636;28;20451;-75
2022/11/30 04:51:00;;;;;;;25.83;16.40;;;8.80;99.90;;;;;;5023274;28;20881;-74
2022/11/30 04:53:46;;;;;;;23.00;15.60;;;8.80;99.90;;;;;;5029383;28;20429;-74
2022/11/30 04:56:32;;;;;;;26.07;16.80;;;8.70;99.90;;;;;;5024960;28;20465;-75
2022/11/30 04:59:19;;;;;;;22.93;15.53;;;8.70;99.90;;;;;;5023525;28;20756;-74
2022/11/30 05:02:04;;;;;;;37.20;16.30;;;8.70;99.90;;;;;;5024422;28;20640;-74
2022/11/30 05:04:50;;;;;;;21.80;14.70;;;8.60;99.90;;;;;;5022246;28;20472;-75
2022/11/30 05:07:35;;;;;;;26.40;15.33;;;8.50;99.90;;;;;;5023247;28;20237;-74
2022/11/30 05:10:21;;;;;;;21.17;13.33;;;8.60;99.90;;;;;;5022646;28;20467;-73
2022/11/30 05:13:07;;;;;;;20.70;14.50;;;8.60;99.90;;;;;;5027501;28;20431;-74
2022/11/30 05:15:53;;;;;;;26.83;14.70;;;8.70;99.90;;;;;;5027935;28;20456;-74
2022/11/30 05:18:39;;;;;;;20.70;12.97;;;8.60;99.90;;;;;;5026324;28;20465;-74
2022/11/30 05:21:25;;;;;;;24.60;14.40;;;8.60;99.90;;;;;;5025231;28;20910;-75
2022/11/30 05:24:11;;;;;;;24.33;13.80;;;8.60;99.90;;;;;;5022340;28;20606;-76
2022/11/30 05:26:56;;;;;;;23.05;13.20;;;8.60;99.90;;;;;;5025414;28;20967;-74
2022/11/30 05:29:42;;;;;;;22.27;12.23;;;8.60;99.90;;;;;;5025174;28;20225;-74
2022/11/30 05:32:29;;;;;;;21.13;14.40;;;8.60;99.90;;;;;;5029749;28;20209;-74
2022/11/30 05:35:14;;;;;;;26.33;11.87;;;8.60;99.90;;;;;;5028304;28;20422;-74
2022/11/30 05:38:00;;;;;;;20.90;10.83;;;8.60;99.90;;;;;;5026242;28;20507;-74
2022/11/30 05:40:45;;;;;;;17.03;10.50;;;8.60;99.90;;;;;;5026358;28;20455;-74
2022/11/30 05:43:31;;;;;;;17.27;10.40;;;8.60;99.90;;;;;;5031062;28;20467;-74
2022/11/30 05:46:16;;;;;;;17.52;11.15;;;8.60;99.90;;;;;;5024937;28;20535;-74
2022/11/30 05:49:04;;;;;;;19.23;11.07;;;8.60;99.90;;;;;;5026138;28;20749;-74
2022/11/30 05:51:49;;;;;;;23.40;12.37;;;8.70;99.90;;;;;;5032650;28;20432;-74
2022/11/30 05:54:35;;;;;;;17.23;10.47;;;8.70;99.90;;;;;;5030239;28;20474;-74
2022/11/30 05:57:20;;;;;;;24.67;12.65;;;8.70;99.90;;;;;;5052578;22;20488;-76
2022/11/30 06:00:08;;;;;;;20.03;10.67;;;8.70;99.90;;;;;;5039141;28;20205;-76
2022/11/30 06:02:56;;;;;;;25.57;11.40;;;8.70;99.90;;;;;;5051953;28;20446;-75
2022/11/30 06:05:43;;;;;;;17.33;10.70;;;8.80;99.90;;;;;;5052549;28;20545;-76
2022/11/30 06:08:29;;;;;;;16.92;9.68;;;8.80;99.90;;;;;;5047060;28;20498;-76
2022/11/30 06:11:15;;;;;;;18.08;10.32;;;8.80;99.90;;;;;;5053016;28;20201;-76
2022/11/30 06:14:01;;;;;;;16.27;9.47;;;8.80;99.90;;;;;;5051779;28;20204;-75
2022/11/30 06:16:46;;;;;;;14.10;8.57;;;8.80;99.90;;;;;;5052034;28;20511;-75
2022/11/30 06:19:32;;;;;;;17.20;9.70;;;8.80;99.90;;;;;;5048111;28;20494;-76
2022/11/30 06:22:19;;;;;;;17.77;9.67;;;8.80;99.90;;;;;;5057263;28;20946;-75
2022/11/30 06:25:05;;;;;;;17.20;9.10;;;8.70;99.90;;;;;;5048578;28;21079;-75
2022/11/30 06:27:51;;;;;;;19.98;9.27;;;8.70;99.90;;;;;;5043740;28;20463;-76
2022/11/30 06:30:36;;;;;;;14.85;9.52;;;8.60;99.90;;;;;;5040123;28;20309;-75
2022/11/30 06:33:23;;;;;;;13.73;7.53;;;8.60;99.90;;;;;;5049324;28;20205;-76
2022/11/30 06:36:09;;;;;;;18.47;9.10;;;8.60;99.90;;;;;;5043807;28;20471;-75
2022/11/30 06:38:56;;;;;;;16.10;8.30;;;8.60;99.90;;;;;;5049859;28;20453;-76
2022/11/30 06:41:42;;;;;;;14.47;9.17;;;8.60;99.90;;;;;;5051841;28;20585;-76
2022/11/30 06:44:27;;;;;;;15.87;9.00;;;8.60;99.90;;;;;;5050145;28;21016;-75
2022/11/30 06:47:13;;;;;;;16.60;10.10;;;8.50;99.90;;;;;;5051559;28;20557;-76
2022/11/30 06:49:59;;;;;;;16.77;12.03;;;8.50;99.90;;;;;;5045737;28;20550;-75
2022/11/30 06:52:44;;;;;;;20.70;10.73;;;8.40;99.90;;;;;;5057039;28;20454;-76
2022/11/30 06:55:34;;;;;;;19.30;12.60;;;8.40;99.90;;;;;;5046311;28;20448;-75
2022/11/30 06:58:19;;;;;;;12.93;9.00;;;8.40;99.90;;;;;;5043372;28;21277;-76
2022/11/30 07:01:06;;;;;;;24.53;11.63;;;8.30;99.90;;;;;;5048398;28;20458;-75
2022/11/30 07:03:52;;;;;;;17.27;9.60;;;8.20;99.90;;;;;;5056810;28;20451;-75
2022/11/30 07:06:37;;;;;;;17.23;10.05;;;8.10;99.90;;;;;;5048212;28;20217;-75
2022/11/30 07:09:23;;;;;;;14.13;8.25;;;8.10;99.90;;;;;;5043571;28;20239;-75
2022/11/30 07:12:10;;;;;;;15.10;8.57;;;8.10;99.90;;;;;;5048785;28;20219;-76
2022/11/30 07:14:56;;;;;;;18.40;10.37;;;8.10;99.90;;;;;;5046788;28;20343;-76
2022/11/30 07:17:41;;;;;;;15.35;8.98;;;8.20;99.90;;;;;;5047427;28;20467;-75
2022/11/30 07:20:27;;;;;;;16.15;10.15;;;8.20;99.90;;;;;;5047942;28;20209;-75
2022/11/30 07:26:17;;;;;;;16.03;9.67;;;8.10;99.90;;;;;;5047952;28;20733;-76
2022/11/30 07:29:04;;;;;;;18.75;10.65;;;8.10;99.90;;;;;;5044424;28;20554;-76
2022/11/30 07:31:51;;;;;;;19.58;10.13;;;8.00;99.90;;;;;;5047060;28;20716;-76
2022/11/30 07:34:36;;;;;;;15.03;10.90;;;7.90;99.90;;;;;;5046683;28;20753;-75
2022/11/30 07:37:22;;;;;;;15.90;11.15;;;7.90;99.90;;;;;;5045528;28;20474;-75
2022/11/30 07:40:08;;;;;;;19.85;12.57;;;8.00;99.90;;;;;;5051435;28;20573;-75
2022/11/30 07:42:55;;;;;;;19.17;11.90;;;8.00;99.90;;;;;;5052033;28;20681;-75
2022/11/30 07:45:42;;;;;;;16.57;11.20;;;8.00;99.90;;;;;;5050559;28;20845;-75
2022/11/30 07:48:28;;;;;;;15.60;10.27;;;8.10;99.90;;;;;;5046428;28;20451;-76
2022/11/30 07:51:15;;;;;;;14.75;10.35;;;8.20;99.90;;;;;;5053067;28;20458;-76
2022/11/30 07:54:01;;;;;;;15.27;9.55;;;8.30;99.90;;;;;;5048563;28;20217;-75
2022/11/30 07:56:47;;;;;;;17.15;11.10;;;8.40;99.90;;;;;;5046939;28;20537;-76
2022/11/30 07:59:32;;;;;;;18.10;9.03;;;8.50;99.90;;;;;;5060956;28;20261;-75
2022/11/30 08:02:19;;;;;;;22.10;13.70;;;8.40;99.90;;;;;;5046415;28;20558;-75
2022/11/30 08:05:05;;;;;;;23.53;13.17;;;8.50;99.90;;;;;;5049470;28;20548;-75
2022/11/30 08:07:52;;;;;;;20.90;13.23;;;8.50;99.90;;;;;;5043205;28;20532;-75
2022/11/30 08:10:37;;;;;;;15.43;10.40;;;8.50;99.90;;;;;;5052788;28;20606;-76
2022/11/30 08:13:23;;;;;;;14.07;9.90;;;8.50;99.90;;;;;;5044654;28;20456;-75
2022/11/30 08:16:11;;;;;;;28.50;14.77;;;8.50;99.90;;;;;;5050197;28;20576;-75
2022/11/30 08:18:58;;;;;;;14.67;8.90;;;8.60;99.90;;;;;;5052991;28;20442;-74
2022/11/30 08:21:44;;;;;;;17.13;10.97;;;8.60;99.90;;;;;;5051910;28;20421;-73
2022/11/30 08:24:29;;;;;;;18.07;13.30;;;8.70;99.90;;;;;;5047112;28;20840;-73
2022/11/30 08:27:15;;;;;;;20.53;14.90;;;8.70;99.90;;;;;;5045297;28;20474;-73
2022/11/30 08:30:01;;;;;;;17.77;12.53;;;8.70;99.90;;;;;;5049124;28;20466;-74
2022/11/30 08:32:46;;;;;;;18.43;12.83;;;8.70;99.90;;;;;;5050838;28;20487;-73
2022/11/30 08:35:33;;;;;;;18.60;13.93;;;8.70;99.90;;;;;;5052794;28;20551;-73
2022/11/30 08:38:19;;;;;;;22.87;15.67;;;8.80;99.90;;;;;;5047198;28;20455;-73
2022/11/30 08:41:05;;;;;;;21.10;15.13;;;8.80;99.90;;;;;;5049216;28;20428;-74
2022/11/30 08:43:52;;;;;;;21.43;14.70;;;8.80;99.90;;;;;;5045278;28;20234;-76
2022/11/30 08:46:37;;;;;;;16.43;13.37;;;8.90;99.90;;;;;;5044127;28;20459;-76
2022/11/30 08:49:23;;;;;;;16.30;12.40;;;8.80;99.90;;;;;;5054461;28;20460;-75
2022/11/30 08:52:10;;;;;;;19.93;13.40;;;8.80;99.90;;;;;;5050079;28;20802;-75
2022/11/30 08:54:56;;;;;;;16.73;12.17;;;8.80;99.90;;;;;;5046359;28;20447;-76
2022/11/30 08:57:41;;;;;;;23.53;12.20;;;8.80;99.90;;;;;;5046703;28;20475;-76
2022/11/30 09:00:27;;;;;;;15.70;11.40;;;8.80;99.90;;;;;;5047257;28;20494;-77
2022/11/30 09:03:13;;;;;;;15.95;10.98;;;8.90;99.90;;;;;;5047910;28;20537;-75
2022/11/30 09:06:05;;;;;;;12.53;9.90;;;8.80;99.90;;;;;;5046157;28;20625;-75
2022/11/30 09:08:55;;;;;;;15.27;10.73;;;8.90;99.90;;;;;;5050212;28;20579;-75
2022/11/30 09:11:41;;;;;;;17.23;11.20;;;8.70;99.90;;;;;;5043608;28;20542;-75
2022/11/30 09:14:27;;;;;;;17.93;11.10;;;8.70;99.90;;;;;;5044652;28;20518;-75
2022/11/30 09:17:12;;;;;;;15.93;12.60;;;8.70;99.90;;;;;;5048262;28;20455;-75
2022/11/30 09:19:58;;;;;;;14.93;10.57;;;8.80;99.90;;;;;;5046595;28;20938;-76
2022/11/30 09:22:44;;;;;;;15.23;11.60;;;8.80;99.90;;;;;;5044798;28;20831;-75
2022/11/30 09:25:31;;;;;;;11.93;10.20;;;8.80;99.90;;;;;;5050036;28;20541;-76
2022/11/30 09:28:16;;;;;;;13.02;10.60;;;8.90;99.90;;;;;;5052891;28;20418;-77
2022/11/30 09:31:03;;;;;;;12.70;10.07;;;8.90;99.90;;;;;;5049918;28;20720;-75
2022/11/30 09:33:48;;;;;;;13.93;10.60;;;8.90;99.90;;;;;;5049467;28;20603;-75
2022/11/30 09:36:35;;;;;;;15.80;11.50;;;8.90;99.90;;;;;;5046902;28;20471;-75
2022/11/30 09:39:21;;;;;;;15.53;11.83;;;9.00;99.90;;;;;;5052923;28;20451;-77
2022/11/30 09:42:28;;;;;;;12.70;11.07;;;9.00;99.90;;;;;;5049855;28;20483;-76
2022/11/30 09:45:19;;;;;;;12.63;10.73;;;9.00;99.90;;;;;;5048522;28;20463;-76
2022/11/30 09:48:31;;;;;;;15.60;11.20;;;9.00;99.90;;;;;;5057665;28;20444;-75
2022/11/30 09:51:22;;;;;;;16.37;11.83;;;9.10;99.90;;;;;;5053151;28;21003;-76
2022/11/30 09:54:14;;;;;;;15.10;11.60;;;9.20;99.90;;;;;;5052006;28;20493;-76
2022/11/30 09:57:00;;;;;;;13.20;10.90;;;9.10;99.90;;;;;;5042088;28;20453;-76
2022/11/30 09:59:55;;;;;;;13.73;11.00;;;9.20;99.90;;;;;;5046846;28;20518;-76
2022/11/30 10:02:41;;;;;;;16.73;12.03;;;9.10;99.90;;;;;;5050365;28;20451;-75
2022/11/30 10:05:40;;;;;;;14.40;10.80;;;9.10;99.90;;;;;;5048603;28;20472;-76
2022/11/30 10:08:44;;;;;;;15.97;11.37;;;9.10;99.90;;;;;;5049124;28;20475;-76
2022/11/30 10:11:45;;;;;;;14.10;11.37;;;9.00;99.90;;;;;;5042543;28;20450;-76
2022/11/30 10:15:01;;;;;;;13.45;10.75;;;9.00;99.90;;;;;;5045700;28;20513;-76
2022/11/30 10:17:53;;;;;;;13.17;10.53;;;9.00;99.90;;;;;;5036844;28;20229;-76
2022/11/30 10:20:54;;;;;;;12.30;10.57;;;9.00;99.90;;;;;;5047244;28;20467;-76
2022/11/30 10:24:09;;;;;;;11.53;9.63;;;9.10;99.90;;;;;;5047827;28;20467;-75
2022/11/30 10:26:57;;;;;;;13.37;11.10;;;9.10;99.90;;;;;;5044299;28;20491;-77
2022/11/30 10:29:43;;;;;;;14.93;11.63;;;9.10;99.90;;;;;;5042036;28;20456;-77
2022/11/30 10:32:35;;;;;;;14.63;10.90;;;9.20;99.90;;;;;;5047126;28;20597;-76
2022/11/30 10:35:33;;;;;;;13.23;10.90;;;9.20;99.90;;;;;;5042717;28;20539;-77
2022/11/30 10:38:24;;;;;;;17.20;10.93;;;9.30;99.90;;;;;;5046556;28;20451;-76
2022/11/30 10:41:15;;;;;;;12.13;10.53;;;9.40;99.90;;;;;;5045942;28;20221;-76
2022/11/30 10:44:06;;;;;;;16.83;12.77;;;9.40;99.90;;;;;;5045645;28;20452;-74
2022/11/30 10:46:57;;;;;;;13.90;10.80;;;9.40;99.90;;;;;;5045586;28;20473;-74
2022/11/30 10:49:48;;;;;;;16.33;10.70;;;9.50;99.90;;;;;;5050454;28;20428;-74
2022/11/30 10:52:41;;;;;;;17.53;11.87;;;9.50;99.90;;;;;;5053938;28;20428;-74
2022/11/30 10:55:29;;;;;;;13.43;11.30;;;9.50;99.90;;;;;;5046459;28;20422;-74
2022/11/30 10:58:21;;;;;;;12.43;9.93;;;9.60;99.90;;;;;;5050071;28;20423;-74
2022/11/30 11:01:09;;;;;;;13.10;10.40;;;9.60;99.90;;;;;;5060439;28;20424;-74
2022/11/30 11:04:08;;;;;;;13.83;11.33;;;9.60;99.90;;;;;;5048998;28;20467;-74
2022/11/30 11:06:58;;;;;;;14.23;10.77;;;9.60;99.90;;;;;;5050010;28;20849;-74
2022/11/30 11:09:48;;;;;;;13.07;10.63;;;9.60;99.90;;;;;;5047400;28;20443;-74
2022/11/30 11:12:34;;;;;;;19.83;10.33;;;9.70;99.90;;;;;;5060551;28;20451;-74
2022/11/30 11:15:23;;;;;;;13.80;10.43;;;9.70;99.90;;;;;;5038664;28;20482;-73
2022/11/30 11:18:21;;;;;;;13.07;10.73;;;9.80;99.90;;;;;;5051990;28;20506;-74
2022/11/30 11:21:16;;;;;;;12.50;10.50;;;9.80;99.90;;;;;;5042559;28;20486;-74
2022/11/30 11:24:09;;;;;;;14.70;11.47;;;9.80;99.90;;;;;;5036213;28;20455;-73
2022/11/30 11:26:56;;;;;;;12.53;10.43;;;9.90;99.90;;;;;;5053399;28;20602;-74
2022/11/30 11:29:43;;;;;;;13.47;9.97;;;9.90;99.90;;;;;;5043287;28;20427;-74
2022/11/30 11:32:29;;;;;;;12.67;10.47;;;9.80;99.90;;;;;;5051568;28;20431;-74
2022/11/30 11:35:34;;;;;;;12.67;10.03;;;9.70;99.90;;;;;;5048070;28;20995;-74
2022/11/30 11:38:27;;;;;;;13.57;10.93;;;9.80;99.90;;;;;;5048961;28;20423;-73
2022/11/30 11:41:21;;;;;;;12.70;9.60;;;9.80;99.90;;;;;;5058093;28;20401;-77
2022/11/30 11:44:20;;;;;;;13.83;10.37;;;9.80;99.90;;;;;;5041485;28;20456;-78
2022/11/30 11:47:09;;;;;;;13.53;9.33;;;9.90;99.90;;;;;;5049768;28;20475;-76
2022/11/30 11:50:22;;;;;;;11.27;8.90;;;9.90;99.90;;;;;;5051483;28;20424;-76
2022/11/30 11:53:21;;;;;;;11.73;9.47;;;9.90;99.90;;;;;;5052847;28;20586;-76
2022/11/30 11:56:12;;;;;;;12.63;10.00;;;9.90;99.90;;;;;;5070803;23;20453;-76
2022/11/30 11:59:02;;;;;;;13.97;11.63;;;10.00;99.90;;;;;;5020294;28;20442;-77
2022/11/30 12:01:58;;;;;;;15.83;12.07;;;10.10;99.90;;;;;;5013939;28;20791;-77
2022/11/30 12:04:48;;;;;;;13.40;10.93;;;10.10;99.90;;;;;;5021938;28;20423;-76
2022/11/30 12:07:40;;;;;;;15.07;11.97;;;10.10;99.90;;;;;;5032997;28;20440;-76
2022/11/30 12:10:32;;;;;;;15.13;11.70;;;10.00;99.90;;;;;;5039412;28;20524;-77
2022/11/30 12:13:20;;;;;;;13.80;11.60;;;10.00;99.90;;;;;;5039241;28;20415;-77
2022/11/30 12:16:20;;;;;;;15.97;11.70;;;10.00;99.90;;;;;;5040252;28;20420;-77
2022/11/30 12:19:14;;;;;;;13.87;11.60;;;10.00;99.90;;;;;;5039828;28;20423;-76
2022/11/30 12:22:09;;;;;;;12.33;10.37;;;10.00;99.90;;;;;;5040093;28;20463;-77
2022/11/30 12:25:15;;;;;;;10.40;8.50;;;10.10;99.90;;;;;;5033047;28;20522;-77
2022/11/30 12:28:13;;;;;;;8.47;7.30;;;10.10;99.90;;;;;;5037266;28;20447;-76
2022/11/30 12:31:11;;;;;;;6.60;5.60;;;10.10;99.90;;;;;;5034258;28;20432;-76
2022/11/30 12:34:07;;;;;;;9.43;5.90;;;10.00;99.90;;;;;;5036126;28;20448;-75
2022/11/30 12:37:01;;;;;;;5.70;5.10;;;9.90;99.90;;;;;;5045068;28;20422;-77
2022/11/30 12:39:56;;;;;;;11.07;5.73;;;9.90;99.90;;;;;;5028732;28;20463;-76
2022/11/30 12:42:46;;;;;;;7.10;6.07;;;9.80;99.90;;;;;;5021968;28;20453;-77
2022/11/30 12:45:37;;;;;;;6.77;6.03;;;9.70;99.90;;;;;;5030555;28;20851;-76
2022/11/30 12:48:33;;;;;;;6.10;5.17;;;9.70;99.90;;;;;;5031758;28;20464;-77
2022/11/30 12:51:26;;;;;;;7.47;5.60;;;9.80;99.90;;;;;;5039839;28;21007;-75
2022/11/30 12:54:21;;;;;;;7.10;5.67;;;9.80;99.90;;;;;;5029241;28;20800;-76
2022/11/30 12:57:15;;;;;;;8.23;6.97;;;9.80;99.90;;;;;;5036196;28;21004;-77
2022/11/30 13:00:06;;;;;;;7.07;5.30;;;9.80;99.90;;;;;;5031096;28;20470;-76
2022/11/30 13:03:14;;;;;;;9.73;6.90;;;9.70;99.90;;;;;;5029209;28;20985;-76
2022/11/30 13:06:09;;;;;;;10.60;7.93;;;9.70;99.90;;;;;;5032524;28;20488;-76
2022/11/30 13:09:01;;;;;;;8.10;6.90;;;9.70;99.90;;;;;;5029357;28;20520;-76
2022/11/30 13:11:52;;;;;;;8.77;7.17;;;9.80;99.90;;;;;;5030987;28;20451;-76
2022/11/30 13:14:38;;;;;;;8.67;7.20;;;9.70;99.90;;;;;;5030244;28;21224;-76
2022/11/30 13:17:25;;;;;;;10.03;7.17;;;9.70;99.90;;;;;;5027324;28;20464;-76
2022/11/30 13:20:21;;;;;;;10.60;7.13;;;9.80;99.90;;;;;;5026932;28;20451;-76
2022/11/30 13:23:13;;;;;;;8.70;6.43;;;9.80;99.90;;;;;;5020063;28;20995;-76
2022/11/30 13:26:06;;;;;;;8.73;6.80;;;9.90;99.90;;;;;;5032241;28;20471;-76
2022/11/30 13:29:03;;;;;;;9.20;6.80;;;9.90;99.90;;;;;;5028800;28;20825;-76
2022/11/30 13:31:55;;;;;;;11.43;7.60;;;9.90;99.90;;;;;;5026432;28;20814;-75
2022/11/30 13:34:41;;;;;;;10.67;7.10;;;9.90;99.90;;;;;;5027648;28;20459;-76
2022/11/30 13:37:27;;;;;;;10.87;7.40;;;9.90;99.90;;;;;;5021643;28;20471;-75
2022/11/30 13:40:21;;;;;;;9.03;6.47;;;9.90;99.90;;;;;;5025541;28;20430;-76
2022/11/30 13:43:16;;;;;;;10.93;6.57;;;9.90;99.90;;;;;;5033459;28;20454;-77
2022/11/30 13:46:04;;;;;;;11.20;7.23;;;9.90;99.90;;;;;;5023468;28;21119;-75
2022/11/30 13:49:08;;;;;;;8.57;6.03;;;9.90;99.90;;;;;;5026139;28;20567;-76
2022/11/30 13:51:54;;;;;;;9.20;6.60;;;9.90;99.90;;;;;;5032989;28;21047;-76
2022/11/30 13:54:42;;;;;;;8.07;6.17;;;9.90;99.90;;;;;;5024431;28;21642;-76
2022/11/30 13:58:06;;;;;;;9.17;7.20;;;9.80;99.90;;;;;;5029043;28;20480;-76
2022/11/30 14:01:24;;;;;;;17.63;6.90;;;9.80;99.90;;;;;;5033919;28;20451;-76
2022/11/30 14:04:31;;;;;;;8.40;6.70;;;9.90;99.90;;;;;;5027328;28;20453;-77
2022/11/30 14:07:37;;;;;;;8.87;7.40;;;9.90;99.90;;;;;;5034112;28;20480;-76
2022/11/30 14:10:31;;;;;;;9.80;7.27;;;9.80;99.90;;;;;;5041609;28;20577;-77
2022/11/30 14:13:31;;;;;;;9.07;7.23;;;9.80;99.90;;;;;;5026168;28;20456;-76
2022/11/30 14:16:23;;;;;;;10.97;7.83;;;9.80;99.90;;;;;;5027110;28;20464;-77
2022/11/30 14:19:10;;;;;;;9.90;7.77;;;9.70;99.90;;;;;;5029016;28;20570;-76
2022/11/30 14:21:58;;;;;;;11.17;8.10;;;9.70;99.90;;;;;;5031150;28;20606;-76
2022/11/30 14:24:46;;;;;;;10.53;6.63;;;9.70;99.90;;;;;;5022972;28;20830;-76
2022/11/30 14:27:31;;;;;;;8.40;6.70;;;9.70;99.90;;;;;;5024182;28;20480;-76
2022/11/30 14:30:21;;;;;;;9.10;6.70;;;9.70;99.90;;;;;;5029373;28;20822;-76
2022/11/30 14:33:13;;;;;;;11.97;7.97;;;9.70;99.90;;;;;;5014810;28;20465;-75
2022/11/30 14:36:00;;;;;;;9.07;7.30;;;9.70;99.90;;;;;;5027272;28;20460;-75